sensor_id;sensor_type;location;lat;lon;timestamp;P1;durP1;ratioP1;P2;durP2;ratioP2
23472;SDS011;11909;52.516;13.564;2022-09-09T00:01:36;12.55;;;8.27;;
23472;SDS011;11909;52.516;13.564;2022-09-09T00:04:12;9.30;;;7.70;;
23472;SDS011;11909;52.516;13.564;2022-09-09T00:06:49;9.45;;;8.45;;
23472;SDS011;11909;52.516;13.564;2022-09-09T00:09:26;9.60;;;7.97;;
23472;SDS011;11909;52.516;13.564;2022-09-09T00:11:55;12.77;;;8.82;;
23472;SDS011;11909;52.516;13.564;2022-09-09T00:14:32;11.25;;;9.38;;
23472;SDS011;11909;52.516;13.564;2022-09-09T00:17:07;11.85;;;9.90;;
23472;SDS011;11909;52.516;13.564;2022-09-09T00:19:39;10.25;;;9.25;;
23472;SDS011;11909;52.516;13.564;2022-09-09T00:22:15;10.75;;;9.65;;
23472;SDS011;11909;52.516;13.564;2022-09-09T00:24:43;9.18;;;8.27;;
23472;SDS011;11909;52.516;13.564;2022-09-09T00:27:14;11.10;;;8.88;;
23472;SDS011;11909;52.516;13.564;2022-09-09T00:29:47;13.05;;;9.43;;
23472;SDS011;11909;52.516;13.564;2022-09-09T00:32:19;10.52;;;9.48;;
23472;SDS011;11909;52.516;13.564;2022-09-09T00:34:47;9.73;;;8.82;;
23472;SDS011;11909;52.516;13.564;2022-09-09T00:37:17;9.37;;;7.77;;
23472;SDS011;11909;52.516;13.564;2022-09-09T00:39:46;9.95;;;9.05;;
23472;SDS011;11909;52.516;13.564;2022-09-09T00:42:14;9.23;;;7.03;;
23472;SDS011;11909;52.516;13.564;2022-09-09T00:44:51;9.73;;;8.73;;
23472;SDS011;11909;52.516;13.564;2022-09-09T00:47:26;11.15;;;7.90;;
23472;SDS011;11909;52.516;13.564;2022-09-09T00:50:08;12.98;;;8.52;;
23472;SDS011;11909;52.516;13.564;2022-09-09T00:52:46;7.88;;;7.10;;
23472;SDS011;11909;52.516;13.564;2022-09-09T00:55:24;8.68;;;7.78;;
23472;SDS011;11909;52.516;13.564;2022-09-09T00:57:58;11.35;;;8.55;;
23472;SDS011;11909;52.516;13.564;2022-09-09T01:00:25;7.93;;;6.53;;
23472;SDS011;11909;52.516;13.564;2022-09-09T01:03:01;8.68;;;7.80;;
23472;SDS011;11909;52.516;13.564;2022-09-09T01:05:41;7.82;;;7.03;;
23472;SDS011;11909;52.516;13.564;2022-09-09T01:08:15;8.40;;;7.00;;
23472;SDS011;11909;52.516;13.564;2022-09-09T01:10:53;11.88;;;8.45;;
23472;SDS011;11909;52.516;13.564;2022-09-09T01:13:22;7.78;;;7.07;;
23472;SDS011;11909;52.516;13.564;2022-09-09T01:15:51;8.77;;;7.40;;
23472;SDS011;11909;52.516;13.564;2022-09-09T01:18:19;6.63;;;6.03;;
23472;SDS011;11909;52.516;13.564;2022-09-09T01:23:28;8.23;;;7.43;;
23472;SDS011;11909;52.516;13.564;2022-09-09T01:26:09;9.30;;;7.22;;
23472;SDS011;11909;52.516;13.564;2022-09-09T01:28:41;10.40;;;8.07;;
23472;SDS011;11909;52.516;13.564;2022-09-09T01:31:11;9.88;;;7.05;;
23472;SDS011;11909;52.516;13.564;2022-09-09T01:33:41;8.45;;;7.63;;
23472;SDS011;11909;52.516;13.564;2022-09-09T01:36:08;10.45;;;7.38;;
23472;SDS011;11909;52.516;13.564;2022-09-09T01:38:38;7.55;;;6.85;;
23472;SDS011;11909;52.516;13.564;2022-09-09T01:41:06;8.40;;;6.85;;
23472;SDS011;11909;52.516;13.564;2022-09-09T01:43:34;14.02;;;7.35;;
23472;SDS011;11909;52.516;13.564;2022-09-09T01:46:01;9.35;;;6.95;;
23472;SDS011;11909;52.516;13.564;2022-09-09T01:48:28;8.57;;;7.18;;
23472;SDS011;11909;52.516;13.564;2022-09-09T01:50:55;7.65;;;6.85;;
23472;SDS011;11909;52.516;13.564;2022-09-09T01:53:21;13.38;;;7.55;;
23472;SDS011;11909;52.516;13.564;2022-09-09T01:55:51;7.60;;;6.90;;
23472;SDS011;11909;52.516;13.564;2022-09-09T01:58:28;9.27;;;6.25;;
23472;SDS011;11909;52.516;13.564;2022-09-09T02:01:02;8.38;;;7.20;;
23472;SDS011;11909;52.516;13.564;2022-09-09T02:03:38;7.05;;;6.35;;
23472;SDS011;11909;52.516;13.564;2022-09-09T02:06:08;9.88;;;6.65;;
23472;SDS011;11909;52.516;13.564;2022-09-09T02:08:48;7.32;;;5.78;;
23472;SDS011;11909;52.516;13.564;2022-09-09T02:11:17;7.25;;;6.55;;
23472;SDS011;11909;52.516;13.564;2022-09-09T02:13:46;9.15;;;6.82;;
23472;SDS011;11909;52.516;13.564;2022-09-09T02:16:17;7.90;;;6.75;;
23472;SDS011;11909;52.516;13.564;2022-09-09T02:18:50;6.63;;;5.95;;
23472;SDS011;11909;52.516;13.564;2022-09-09T02:21:19;9.45;;;7.22;;
23472;SDS011;11909;52.516;13.564;2022-09-09T02:23:48;10.77;;;6.93;;
23472;SDS011;11909;52.516;13.564;2022-09-09T02:26:18;7.10;;;6.40;;
23472;SDS011;11909;52.516;13.564;2022-09-09T02:28:49;9.57;;;6.75;;
23472;SDS011;11909;52.516;13.564;2022-09-09T02:31:20;7.13;;;6.20;;
23472;SDS011;11909;52.516;13.564;2022-09-09T02:33:51;7.35;;;6.65;;
23472;SDS011;11909;52.516;13.564;2022-09-09T02:36:20;7.72;;;6.80;;
23472;SDS011;11909;52.516;13.564;2022-09-09T02:38:49;6.50;;;5.73;;
23472;SDS011;11909;52.516;13.564;2022-09-09T02:41:19;7.85;;;6.28;;
23472;SDS011;11909;52.516;13.564;2022-09-09T02:43:48;7.93;;;6.05;;
23472;SDS011;11909;52.516;13.564;2022-09-09T02:46:22;8.38;;;6.25;;
23472;SDS011;11909;52.516;13.564;2022-09-09T02:48:59;6.95;;;6.25;;
23472;SDS011;11909;52.516;13.564;2022-09-09T02:51:29;8.57;;;6.40;;
23472;SDS011;11909;52.516;13.564;2022-09-09T02:54:04;7.95;;;6.72;;
23472;SDS011;11909;52.516;13.564;2022-09-09T02:56:38;8.98;;;6.38;;
23472;SDS011;11909;52.516;13.564;2022-09-09T02:59:09;8.98;;;5.20;;
23472;SDS011;11909;52.516;13.564;2022-09-09T03:01:37;9.02;;;6.85;;
23472;SDS011;11909;52.516;13.564;2022-09-09T03:04:05;5.85;;;5.28;;
23472;SDS011;11909;52.516;13.564;2022-09-09T03:06:31;12.55;;;7.10;;
23472;SDS011;11909;52.516;13.564;2022-09-09T03:08:58;7.40;;;6.53;;
23472;SDS011;11909;52.516;13.564;2022-09-09T03:11:26;7.85;;;6.20;;
23472;SDS011;11909;52.516;13.564;2022-09-09T03:13:53;7.97;;;6.20;;
23472;SDS011;11909;52.516;13.564;2022-09-09T03:16:20;7.15;;;6.50;;
23472;SDS011;11909;52.516;13.564;2022-09-09T03:18:48;8.88;;;6.28;;
23472;SDS011;11909;52.516;13.564;2022-09-09T03:21:15;7.72;;;6.40;;
23472;SDS011;11909;52.516;13.564;2022-09-09T03:23:41;7.22;;;6.53;;
23472;SDS011;11909;52.516;13.564;2022-09-09T03:26:08;6.85;;;6.10;;
23472;SDS011;11909;52.516;13.564;2022-09-09T03:28:34;9.48;;;6.68;;
23472;SDS011;11909;52.516;13.564;2022-09-09T03:31:01;7.47;;;6.43;;
23472;SDS011;11909;52.516;13.564;2022-09-09T03:33:29;12.50;;;6.70;;
23472;SDS011;11909;52.516;13.564;2022-09-09T03:35:57;6.82;;;6.15;;
23472;SDS011;11909;52.516;13.564;2022-09-09T03:38:24;6.00;;;5.43;;
23472;SDS011;11909;52.516;13.564;2022-09-09T03:40:51;7.43;;;6.60;;
23472;SDS011;11909;52.516;13.564;2022-09-09T03:43:20;6.72;;;6.05;;
23472;SDS011;11909;52.516;13.564;2022-09-09T03:45:47;6.85;;;6.22;;
23472;SDS011;11909;52.516;13.564;2022-09-09T03:48:13;7.03;;;6.00;;
23472;SDS011;11909;52.516;13.564;2022-09-09T03:50:43;6.07;;;5.47;;
23472;SDS011;11909;52.516;13.564;2022-09-09T03:53:12;10.37;;;6.43;;
23472;SDS011;11909;52.516;13.564;2022-09-09T03:55:39;8.25;;;6.50;;
23472;SDS011;11909;52.516;13.564;2022-09-09T03:58:10;7.70;;;6.18;;
23472;SDS011;11909;52.516;13.564;2022-09-09T04:00:37;6.80;;;6.20;;
23472;SDS011;11909;52.516;13.564;2022-09-09T04:03:09;9.38;;;7.00;;
23472;SDS011;11909;52.516;13.564;2022-09-09T04:05:36;9.45;;;6.85;;
23472;SDS011;11909;52.516;13.564;2022-09-09T04:08:04;6.85;;;5.93;;
23472;SDS011;11909;52.516;13.564;2022-09-09T04:10:33;8.45;;;6.00;;
23472;SDS011;11909;52.516;13.564;2022-09-09T04:13:01;7.13;;;6.25;;
23472;SDS011;11909;52.516;13.564;2022-09-09T04:15:27;9.20;;;6.70;;
23472;SDS011;11909;52.516;13.564;2022-09-09T04:17:54;8.75;;;6.07;;
23472;SDS011;11909;52.516;13.564;2022-09-09T04:20:20;6.82;;;6.10;;
23472;SDS011;11909;52.516;13.564;2022-09-09T04:22:47;7.78;;;6.70;;
23472;SDS011;11909;52.516;13.564;2022-09-09T04:25:13;8.55;;;6.32;;
23472;SDS011;11909;52.516;13.564;2022-09-09T04:27:41;10.18;;;6.25;;
23472;SDS011;11909;52.516;13.564;2022-09-09T04:30:08;8.25;;;6.20;;
23472;SDS011;11909;52.516;13.564;2022-09-09T04:32:35;6.97;;;5.80;;
23472;SDS011;11909;52.516;13.564;2022-09-09T04:35:02;6.78;;;6.10;;
23472;SDS011;11909;52.516;13.564;2022-09-09T04:37:28;6.55;;;5.95;;
23472;SDS011;11909;52.516;13.564;2022-09-09T04:39:55;8.93;;;6.70;;
23472;SDS011;11909;52.516;13.564;2022-09-09T04:42:21;8.00;;;6.30;;
23472;SDS011;11909;52.516;13.564;2022-09-09T04:44:49;7.28;;;6.13;;
23472;SDS011;11909;52.516;13.564;2022-09-09T04:47:16;6.70;;;6.00;;
23472;SDS011;11909;52.516;13.564;2022-09-09T04:49:42;7.53;;;6.18;;
23472;SDS011;11909;52.516;13.564;2022-09-09T04:52:09;9.82;;;6.88;;
23472;SDS011;11909;52.516;13.564;2022-09-09T04:54:35;8.50;;;6.68;;
23472;SDS011;11909;52.516;13.564;2022-09-09T04:57:02;7.30;;;6.18;;
23472;SDS011;11909;52.516;13.564;2022-09-09T04:59:28;9.20;;;6.47;;
23472;SDS011;11909;52.516;13.564;2022-09-09T05:01:56;11.75;;;6.45;;
23472;SDS011;11909;52.516;13.564;2022-09-09T05:04:23;7.10;;;5.88;;
23472;SDS011;11909;52.516;13.564;2022-09-09T05:06:49;7.55;;;6.10;;
23472;SDS011;11909;52.516;13.564;2022-09-09T05:09:16;7.20;;;5.35;;
23472;SDS011;11909;52.516;13.564;2022-09-09T05:11:42;8.45;;;6.00;;
23472;SDS011;11909;52.516;13.564;2022-09-09T05:14:08;9.60;;;5.57;;
23472;SDS011;11909;52.516;13.564;2022-09-09T05:16:36;7.22;;;5.78;;
23472;SDS011;11909;52.516;13.564;2022-09-09T05:19:04;6.35;;;5.30;;
23472;SDS011;11909;52.516;13.564;2022-09-09T05:21:31;7.38;;;6.03;;
23472;SDS011;11909;52.516;13.564;2022-09-09T05:23:58;8.23;;;6.35;;
23472;SDS011;11909;52.516;13.564;2022-09-09T05:26:25;7.63;;;6.90;;
23472;SDS011;11909;52.516;13.564;2022-09-09T05:28:54;8.82;;;6.60;;
23472;SDS011;11909;52.516;13.564;2022-09-09T05:31:21;9.50;;;6.72;;
23472;SDS011;11909;52.516;13.564;2022-09-09T05:33:47;7.32;;;6.63;;
23472;SDS011;11909;52.516;13.564;2022-09-09T05:36:17;9.88;;;5.78;;
23472;SDS011;11909;52.516;13.564;2022-09-09T05:38:45;5.93;;;5.32;;
23472;SDS011;11909;52.516;13.564;2022-09-09T05:41:12;9.48;;;5.43;;
23472;SDS011;11909;52.516;13.564;2022-09-09T05:43:40;11.93;;;5.93;;
23472;SDS011;11909;52.516;13.564;2022-09-09T05:46:09;9.48;;;5.88;;
23472;SDS011;11909;52.516;13.564;2022-09-09T05:48:38;5.45;;;4.65;;
23472;SDS011;11909;52.516;13.564;2022-09-09T05:51:06;8.50;;;5.78;;
23472;SDS011;11909;52.516;13.564;2022-09-09T05:53:36;7.38;;;5.70;;
23472;SDS011;11909;52.516;13.564;2022-09-09T05:56:03;7.40;;;5.50;;
23472;SDS011;11909;52.516;13.564;2022-09-09T05:58:31;6.47;;;5.88;;
23472;SDS011;11909;52.516;13.564;2022-09-09T06:01:01;6.53;;;5.93;;
23472;SDS011;11909;52.516;13.564;2022-09-09T06:03:29;8.25;;;5.05;;
23472;SDS011;11909;52.516;13.564;2022-09-09T06:05:59;7.32;;;5.97;;
23472;SDS011;11909;52.516;13.564;2022-09-09T06:08:26;5.70;;;5.10;;
23472;SDS011;11909;52.516;13.564;2022-09-09T06:10:53;7.63;;;5.50;;
23472;SDS011;11909;52.516;13.564;2022-09-09T06:13:28;6.13;;;5.40;;
23472;SDS011;11909;52.516;13.564;2022-09-09T06:15:55;7.10;;;5.03;;
23472;SDS011;11909;52.516;13.564;2022-09-09T06:18:21;8.73;;;5.47;;
23472;SDS011;11909;52.516;13.564;2022-09-09T06:20:54;10.98;;;6.03;;
23472;SDS011;11909;52.516;13.564;2022-09-09T06:23:25;6.65;;;5.63;;
23472;SDS011;11909;52.516;13.564;2022-09-09T06:26:01;8.40;;;5.90;;
23472;SDS011;11909;52.516;13.564;2022-09-09T06:28:31;8.35;;;5.40;;
23472;SDS011;11909;52.516;13.564;2022-09-09T06:30:58;7.60;;;5.28;;
23472;SDS011;11909;52.516;13.564;2022-09-09T06:33:25;7.18;;;5.60;;
23472;SDS011;11909;52.516;13.564;2022-09-09T06:35:53;8.30;;;5.03;;
23472;SDS011;11909;52.516;13.564;2022-09-09T06:38:22;9.15;;;5.80;;
23472;SDS011;11909;52.516;13.564;2022-09-09T06:40:50;7.55;;;5.20;;
23472;SDS011;11909;52.516;13.564;2022-09-09T06:43:19;10.65;;;6.20;;
23472;SDS011;11909;52.516;13.564;2022-09-09T06:45:52;8.50;;;5.63;;
23472;SDS011;11909;52.516;13.564;2022-09-09T06:48:19;5.72;;;5.13;;
23472;SDS011;11909;52.516;13.564;2022-09-09T06:50:46;6.22;;;5.05;;
23472;SDS011;11909;52.516;13.564;2022-09-09T06:53:12;7.60;;;4.80;;
23472;SDS011;11909;52.516;13.564;2022-09-09T06:55:44;6.80;;;4.70;;
23472;SDS011;11909;52.516;13.564;2022-09-09T06:58:11;7.05;;;4.40;;
23472;SDS011;11909;52.516;13.564;2022-09-09T07:00:38;6.57;;;3.92;;
23472;SDS011;11909;52.516;13.564;2022-09-09T07:03:05;5.82;;;4.07;;
23472;SDS011;11909;52.516;13.564;2022-09-09T07:05:31;5.28;;;4.07;;
23472;SDS011;11909;52.516;13.564;2022-09-09T07:07:58;7.57;;;4.05;;
23472;SDS011;11909;52.516;13.564;2022-09-09T07:10:24;7.15;;;4.18;;
23472;SDS011;11909;52.516;13.564;2022-09-09T07:12:51;6.63;;;3.75;;
23472;SDS011;11909;52.516;13.564;2022-09-09T07:15:18;6.38;;;2.97;;
23472;SDS011;11909;52.516;13.564;2022-09-09T07:17:46;13.57;;;6.20;;
23472;SDS011;11909;52.516;13.564;2022-09-09T07:20:13;12.82;;;7.47;;
23472;SDS011;11909;52.516;13.564;2022-09-09T07:22:39;18.80;;;8.60;;
23472;SDS011;11909;52.516;13.564;2022-09-09T07:25:06;8.10;;;4.40;;
23472;SDS011;11909;52.516;13.564;2022-09-09T07:27:33;8.80;;;4.43;;
23472;SDS011;11909;52.516;13.564;2022-09-09T07:30:00;5.90;;;4.82;;
23472;SDS011;11909;52.516;13.564;2022-09-09T07:32:26;13.73;;;5.57;;
23472;SDS011;11909;52.516;13.564;2022-09-09T07:34:56;5.68;;;3.50;;
23472;SDS011;11909;52.516;13.564;2022-09-09T07:37:23;5.63;;;2.90;;
23472;SDS011;11909;52.516;13.564;2022-09-09T07:39:49;8.45;;;3.05;;
23472;SDS011;11909;52.516;13.564;2022-09-09T07:42:16;4.30;;;3.10;;
23472;SDS011;11909;52.516;13.564;2022-09-09T07:44:44;37.03;;;23.15;;
23472;SDS011;11909;52.516;13.564;2022-09-09T07:47:10;15.40;;;9.73;;
23472;SDS011;11909;52.516;13.564;2022-09-09T07:49:37;13.90;;;6.30;;
23472;SDS011;11909;52.516;13.564;2022-09-09T07:52:05;7.35;;;3.92;;
23472;SDS011;11909;52.516;13.564;2022-09-09T07:54:31;7.15;;;3.28;;
23472;SDS011;11909;52.516;13.564;2022-09-09T07:56:58;8.07;;;2.65;;
23472;SDS011;11909;52.516;13.564;2022-09-09T07:59:24;4.28;;;2.58;;
23472;SDS011;11909;52.516;13.564;2022-09-09T08:01:51;8.63;;;2.83;;
23472;SDS011;11909;52.516;13.564;2022-09-09T08:04:19;4.82;;;2.40;;
23472;SDS011;11909;52.516;13.564;2022-09-09T08:06:47;4.28;;;2.42;;
23472;SDS011;11909;52.516;13.564;2022-09-09T08:09:16;4.15;;;2.20;;
23472;SDS011;11909;52.516;13.564;2022-09-09T08:11:43;8.18;;;2.40;;
23472;SDS011;11909;52.516;13.564;2022-09-09T08:14:10;7.75;;;2.60;;
23472;SDS011;11909;52.516;13.564;2022-09-09T08:16:38;6.50;;;3.00;;
23472;SDS011;11909;52.516;13.564;2022-09-09T08:19:06;9.63;;;2.80;;
23472;SDS011;11909;52.516;13.564;2022-09-09T08:21:34;13.18;;;9.02;;
23472;SDS011;11909;52.516;13.564;2022-09-09T08:24:03;13.25;;;7.57;;
23472;SDS011;11909;52.516;13.564;2022-09-09T08:26:32;9.45;;;4.07;;
23472;SDS011;11909;52.516;13.564;2022-09-09T08:29:01;7.72;;;2.60;;
23472;SDS011;11909;52.516;13.564;2022-09-09T08:31:31;5.50;;;2.10;;
23472;SDS011;11909;52.516;13.564;2022-09-09T08:33:59;4.35;;;2.00;;
23472;SDS011;11909;52.516;13.564;2022-09-09T08:36:28;6.60;;;2.17;;
23472;SDS011;11909;52.516;13.564;2022-09-09T08:38:57;7.32;;;2.33;;
23472;SDS011;11909;52.516;13.564;2022-09-09T08:41:34;7.90;;;2.00;;
23472;SDS011;11909;52.516;13.564;2022-09-09T08:44:10;4.85;;;2.05;;
23472;SDS011;11909;52.516;13.564;2022-09-09T08:46:45;7.35;;;2.22;;
23472;SDS011;11909;52.516;13.564;2022-09-09T08:49:30;6.63;;;2.10;;
23472;SDS011;11909;52.516;13.564;2022-09-09T08:52:15;33.88;;;18.23;;
23472;SDS011;11909;52.516;13.564;2022-09-09T08:54:45;6.90;;;2.78;;
23472;SDS011;11909;52.516;13.564;2022-09-09T08:57:17;4.68;;;2.15;;
23472;SDS011;11909;52.516;13.564;2022-09-09T08:59:51;3.75;;;2.13;;
23472;SDS011;11909;52.516;13.564;2022-09-09T09:02:21;4.05;;;2.00;;
23472;SDS011;11909;52.516;13.564;2022-09-09T09:05:06;2.97;;;1.73;;
23472;SDS011;11909;52.516;13.564;2022-09-09T09:07:42;3.03;;;1.73;;
23472;SDS011;11909;52.516;13.564;2022-09-09T09:10:20;7.30;;;2.38;;
23472;SDS011;11909;52.516;13.564;2022-09-09T09:12:58;3.35;;;1.65;;
23472;SDS011;11909;52.516;13.564;2022-09-09T09:15:26;3.47;;;1.73;;
23472;SDS011;11909;52.516;13.564;2022-09-09T09:18:01;5.72;;;1.80;;
23472;SDS011;11909;52.516;13.564;2022-09-09T09:20:29;4.38;;;1.65;;
23472;SDS011;11909;52.516;13.564;2022-09-09T09:23:06;9.70;;;2.40;;
23472;SDS011;11909;52.516;13.564;2022-09-09T09:25:41;7.10;;;1.85;;
23472;SDS011;11909;52.516;13.564;2022-09-09T09:28:12;3.70;;;1.80;;
23472;SDS011;11909;52.516;13.564;2022-09-09T09:30:44;3.75;;;2.00;;
23472;SDS011;11909;52.516;13.564;2022-09-09T09:33:17;4.32;;;1.70;;
23472;SDS011;11909;52.516;13.564;2022-09-09T09:35:48;5.60;;;1.70;;
23472;SDS011;11909;52.516;13.564;2022-09-09T09:38:16;6.70;;;2.10;;
23472;SDS011;11909;52.516;13.564;2022-09-09T09:40:48;34.45;;;22.48;;
23472;SDS011;11909;52.516;13.564;2022-09-09T09:43:20;5.28;;;2.83;;
23472;SDS011;11909;52.516;13.564;2022-09-09T09:45:49;6.47;;;3.42;;
23472;SDS011;11909;52.516;13.564;2022-09-09T09:48:16;4.60;;;2.10;;
23472;SDS011;11909;52.516;13.564;2022-09-09T09:50:46;4.32;;;1.73;;
23472;SDS011;11909;52.516;13.564;2022-09-09T09:53:17;6.72;;;1.83;;
23472;SDS011;11909;52.516;13.564;2022-09-09T09:55:48;3.42;;;1.70;;
23472;SDS011;11909;52.516;13.564;2022-09-09T09:58:21;5.15;;;1.70;;
23472;SDS011;11909;52.516;13.564;2022-09-09T10:00:47;7.15;;;2.00;;
23472;SDS011;11909;52.516;13.564;2022-09-09T10:03:21;6.13;;;2.53;;
23472;SDS011;11909;52.516;13.564;2022-09-09T10:05:50;5.35;;;1.75;;
23472;SDS011;11909;52.516;13.564;2022-09-09T10:08:17;6.75;;;2.28;;
23472;SDS011;11909;52.516;13.564;2022-09-09T10:10:50;4.68;;;1.60;;
23472;SDS011;11909;52.516;13.564;2022-09-09T10:13:36;7.55;;;1.60;;
23472;SDS011;11909;52.516;13.564;2022-09-09T10:16:18;4.32;;;1.58;;
23472;SDS011;11909;52.516;13.564;2022-09-09T10:18:56;6.72;;;1.70;;
23472;SDS011;11909;52.516;13.564;2022-09-09T10:21:29;4.75;;;1.52;;
23472;SDS011;11909;52.516;13.564;2022-09-09T10:24:14;6.55;;;1.90;;
23472;SDS011;11909;52.516;13.564;2022-09-09T10:27:01;10.55;;;3.78;;
23472;SDS011;11909;52.516;13.564;2022-09-09T10:32:39;6.22;;;1.60;;
23472;SDS011;11909;52.516;13.564;2022-09-09T10:35:30;7.70;;;1.60;;
23472;SDS011;11909;52.516;13.564;2022-09-09T10:41:02;4.65;;;1.60;;
23472;SDS011;11909;52.516;13.564;2022-09-09T10:46:35;3.72;;;1.30;;
23472;SDS011;11909;52.516;13.564;2022-09-09T10:49:16;3.72;;;1.48;;
23472;SDS011;11909;52.516;13.564;2022-09-09T10:51:50;4.88;;;1.30;;
23472;SDS011;11909;52.516;13.564;2022-09-09T10:57:22;7.78;;;1.30;;
23472;SDS011;11909;52.516;13.564;2022-09-09T10:59:55;7.80;;;1.50;;
23472;SDS011;11909;52.516;13.564;2022-09-09T11:02:29;3.65;;;1.20;;
23472;SDS011;11909;52.516;13.564;2022-09-09T11:04:59;6.43;;;1.70;;
23472;SDS011;11909;52.516;13.564;2022-09-09T11:07:33;4.00;;;1.35;;
23472;SDS011;11909;52.516;13.564;2022-09-09T11:10:05;5.75;;;1.77;;
23472;SDS011;11909;52.516;13.564;2022-09-09T11:12:41;6.20;;;1.23;;
23472;SDS011;11909;52.516;13.564;2022-09-09T11:15:14;4.03;;;1.50;;
23472;SDS011;11909;52.516;13.564;2022-09-09T11:17:46;3.60;;;1.58;;
23472;SDS011;11909;52.516;13.564;2022-09-09T11:20:17;4.35;;;1.50;;
23472;SDS011;11909;52.516;13.564;2022-09-09T11:22:45;2.80;;;1.25;;
23472;SDS011;11909;52.516;13.564;2022-09-09T11:25:16;4.40;;;1.48;;
23472;SDS011;11909;52.516;13.564;2022-09-09T11:27:50;4.47;;;1.27;;
23472;SDS011;11909;52.516;13.564;2022-09-09T11:30:28;4.10;;;1.42;;
23472;SDS011;11909;52.516;13.564;2022-09-09T11:33:16;4.63;;;1.67;;
23472;SDS011;11909;52.516;13.564;2022-09-09T11:36:20;3.22;;;1.25;;
23472;SDS011;11909;52.516;13.564;2022-09-09T11:39:12;2.38;;;0.90;;
23472;SDS011;11909;52.516;13.564;2022-09-09T11:44:32;4.38;;;1.27;;
23472;SDS011;11909;52.516;13.564;2022-09-09T11:46:58;2.17;;;1.10;;
23472;SDS011;11909;52.516;13.564;2022-09-09T11:49:26;2.38;;;1.10;;
23472;SDS011;11909;52.516;13.564;2022-09-09T11:51:57;3.65;;;1.27;;
23472;SDS011;11909;52.516;13.564;2022-09-09T11:54:28;2.05;;;1.20;;
23472;SDS011;11909;52.516;13.564;2022-09-09T11:56:57;4.10;;;1.50;;
23472;SDS011;11909;52.516;13.564;2022-09-09T11:59:25;2.78;;;1.30;;
23472;SDS011;11909;52.516;13.564;2022-09-09T12:01:55;3.55;;;1.10;;
23472;SDS011;11909;52.516;13.564;2022-09-09T12:04:27;5.90;;;1.40;;
23472;SDS011;11909;52.516;13.564;2022-09-09T12:07:03;3.95;;;1.10;;
23472;SDS011;11909;52.516;13.564;2022-09-09T12:09:39;3.80;;;1.02;;
23472;SDS011;11909;52.516;13.564;2022-09-09T12:12:21;4.95;;;1.33;;
23472;SDS011;11909;52.516;13.564;2022-09-09T12:14:57;3.50;;;1.48;;
23472;SDS011;11909;52.516;13.564;2022-09-09T12:17:27;4.55;;;1.05;;
23472;SDS011;11909;52.516;13.564;2022-09-09T12:20:03;4.63;;;1.40;;
23472;SDS011;11909;52.516;13.564;2022-09-09T12:22:43;3.40;;;1.13;;
23472;SDS011;11909;52.516;13.564;2022-09-09T12:25:32;4.32;;;1.40;;
23472;SDS011;11909;52.516;13.564;2022-09-09T12:28:09;2.97;;;0.98;;
23472;SDS011;11909;52.516;13.564;2022-09-09T12:30:43;1.83;;;0.90;;
23472;SDS011;11909;52.516;13.564;2022-09-09T12:33:16;4.28;;;1.40;;
23472;SDS011;11909;52.516;13.564;2022-09-09T12:35:44;1.88;;;0.90;;
23472;SDS011;11909;52.516;13.564;2022-09-09T12:38:17;3.03;;;1.20;;
23472;SDS011;11909;52.516;13.564;2022-09-09T12:40:55;3.35;;;1.40;;
23472;SDS011;11909;52.516;13.564;2022-09-09T12:43:23;4.82;;;1.52;;
23472;SDS011;11909;52.516;13.564;2022-09-09T12:45:51;2.97;;;1.00;;
23472;SDS011;11909;52.516;13.564;2022-09-09T12:48:25;3.45;;;0.90;;
23472;SDS011;11909;52.516;13.564;2022-09-09T12:50:59;4.40;;;1.00;;
23472;SDS011;11909;52.516;13.564;2022-09-09T12:53:29;2.42;;;0.82;;
23472;SDS011;11909;52.516;13.564;2022-09-09T12:55:59;2.33;;;0.80;;
23472;SDS011;11909;52.516;13.564;2022-09-09T12:58:28;3.63;;;1.00;;
23472;SDS011;11909;52.516;13.564;2022-09-09T13:00:58;3.30;;;1.00;;
23472;SDS011;11909;52.516;13.564;2022-09-09T13:03:25;1.17;;;0.73;;
23472;SDS011;11909;52.516;13.564;2022-09-09T13:05:56;2.70;;;0.98;;
23472;SDS011;11909;52.516;13.564;2022-09-09T13:08:25;3.17;;;0.80;;
23472;SDS011;11909;52.516;13.564;2022-09-09T13:10:54;3.25;;;1.10;;
23472;SDS011;11909;52.516;13.564;2022-09-09T13:13:26;2.25;;;1.13;;
23472;SDS011;11909;52.516;13.564;2022-09-09T13:15:56;3.95;;;0.85;;
23472;SDS011;11909;52.516;13.564;2022-09-09T13:18:24;2.88;;;1.10;;
23472;SDS011;11909;52.516;13.564;2022-09-09T13:20:54;2.58;;;0.85;;
23472;SDS011;11909;52.516;13.564;2022-09-09T13:23:23;8.38;;;5.10;;
23472;SDS011;11909;52.516;13.564;2022-09-09T13:25:56;2.35;;;1.50;;
23472;SDS011;11909;52.516;13.564;2022-09-09T13:28:25;2.42;;;1.08;;
23472;SDS011;11909;52.516;13.564;2022-09-09T13:30:56;2.55;;;0.90;;
23472;SDS011;11909;52.516;13.564;2022-09-09T13:33:29;4.47;;;0.98;;
23472;SDS011;11909;52.516;13.564;2022-09-09T13:35:57;2.17;;;0.90;;
23472;SDS011;11909;52.516;13.564;2022-09-09T13:38:25;1.75;;;0.68;;
23472;SDS011;11909;52.516;13.564;2022-09-09T13:40:57;2.30;;;1.10;;
23472;SDS011;11909;52.516;13.564;2022-09-09T13:43:26;5.25;;;0.80;;
23472;SDS011;11909;52.516;13.564;2022-09-09T13:45:55;5.75;;;1.02;;
23472;SDS011;11909;52.516;13.564;2022-09-09T13:48:24;2.50;;;0.90;;
23472;SDS011;11909;52.516;13.564;2022-09-09T13:50:58;4.60;;;1.00;;
23472;SDS011;11909;52.516;13.564;2022-09-09T13:53:28;3.92;;;1.40;;
23472;SDS011;11909;52.516;13.564;2022-09-09T13:55:57;3.25;;;0.80;;
23472;SDS011;11909;52.516;13.564;2022-09-09T13:58:24;2.20;;;1.10;;
23472;SDS011;11909;52.516;13.564;2022-09-09T14:00:51;3.97;;;1.10;;
23472;SDS011;11909;52.516;13.564;2022-09-09T14:03:19;4.13;;;1.02;;
23472;SDS011;11909;52.516;13.564;2022-09-09T14:05:46;3.92;;;1.27;;
23472;SDS011;11909;52.516;13.564;2022-09-09T14:08:24;6.57;;;1.20;;
23472;SDS011;11909;52.516;13.564;2022-09-09T14:10:53;2.53;;;0.90;;
23472;SDS011;11909;52.516;13.564;2022-09-09T14:13:22;3.30;;;0.90;;
23472;SDS011;11909;52.516;13.564;2022-09-09T14:15:48;3.58;;;1.00;;
23472;SDS011;11909;52.516;13.564;2022-09-09T14:18:15;3.28;;;0.82;;
23472;SDS011;11909;52.516;13.564;2022-09-09T14:20:42;3.60;;;1.10;;
23472;SDS011;11909;52.516;13.564;2022-09-09T14:23:10;1.55;;;0.80;;
23472;SDS011;11909;52.516;13.564;2022-09-09T14:25:39;4.30;;;1.00;;
23472;SDS011;11909;52.516;13.564;2022-09-09T14:28:07;1.98;;;0.88;;
23472;SDS011;11909;52.516;13.564;2022-09-09T14:30:38;1.98;;;1.00;;
23472;SDS011;11909;52.516;13.564;2022-09-09T14:33:06;4.30;;;1.52;;
23472;SDS011;11909;52.516;13.564;2022-09-09T14:35:33;2.92;;;1.10;;
23472;SDS011;11909;52.516;13.564;2022-09-09T14:38:01;2.25;;;1.02;;
23472;SDS011;11909;52.516;13.564;2022-09-09T14:40:28;3.50;;;1.25;;
23472;SDS011;11909;52.516;13.564;2022-09-09T14:42:55;3.97;;;1.10;;
23472;SDS011;11909;52.516;13.564;2022-09-09T14:45:21;2.78;;;1.10;;
23472;SDS011;11909;52.516;13.564;2022-09-09T14:47:50;3.55;;;1.10;;
23472;SDS011;11909;52.516;13.564;2022-09-09T14:50:17;3.80;;;1.02;;
23472;SDS011;11909;52.516;13.564;2022-09-09T14:52:44;2.58;;;0.90;;
23472;SDS011;11909;52.516;13.564;2022-09-09T14:55:10;4.38;;;1.17;;
23472;SDS011;11909;52.516;13.564;2022-09-09T14:57:37;2.97;;;1.05;;
23472;SDS011;11909;52.516;13.564;2022-09-09T15:00:05;1.60;;;0.77;;
23472;SDS011;11909;52.516;13.564;2022-09-09T15:02:33;2.90;;;1.05;;
23472;SDS011;11909;52.516;13.564;2022-09-09T15:05:02;4.80;;;1.10;;
23472;SDS011;11909;52.516;13.564;2022-09-09T15:07:29;4.95;;;1.25;;
23472;SDS011;11909;52.516;13.564;2022-09-09T15:09:56;6.20;;;1.23;;